sensor_id;sensor_type;location;lat;lon;timestamp;pressure;altitude;pressure_sealevel;temperature;humidity
62333;BME280;48624;49.812;8.562;2023-03-16T00:00:42;101116.19;;;-0.92;97.33
62333;BME280;48624;49.812;8.562;2023-03-16T00:03:09;101115.50;;;-1.11;98.02
62333;BME280;48624;49.812;8.562;2023-03-16T00:05:35;101124.94;;;-1.02;97.01
62333;BME280;48624;49.812;8.562;2023-03-16T00:08:01;101127.66;;;-1.15;96.82
62333;BME280;48624;49.812;8.562;2023-03-16T00:10:29;101113.66;;;-0.98;95.59
62333;BME280;48624;49.812;8.562;2023-03-16T00:12:55;101121.59;;;-1.15;96.27
62333;BME280;48624;49.812;8.562;2023-03-16T00:15:22;101121.59;;;-1.14;96.82
62333;BME280;48624;49.812;8.562;2023-03-16T00:17:48;101117.19;;;-1.04;96.31
62333;BME280;48624;49.812;8.562;2023-03-16T00:20:17;101109.53;;;-1.26;97.60
62333;BME280;48624;49.812;8.562;2023-03-16T00:22:43;101105.38;;;-1.44;97.97
62333;BME280;48624;49.812;8.562;2023-03-16T00:25:10;101104.41;;;-1.33;97.91
62333;BME280;48624;49.812;8.562;2023-03-16T00:27:36;101107.91;;;-1.36;97.36
62333;BME280;48624;49.812;8.562;2023-03-16T00:30:02;101105.28;;;-1.33;97.40
62333;BME280;48624;49.812;8.562;2023-03-16T00:32:30;101100.91;;;-1.29;96.51
62333;BME280;48624;49.812;8.562;2023-03-16T00:34:56;101103.38;;;-1.14;95.52
62333;BME280;48624;49.812;8.562;2023-03-16T00:37:23;101108.63;;;-1.18;94.56
62333;BME280;48624;49.812;8.562;2023-03-16T00:39:50;101103.56;;;-1.35;95.91
62333;BME280;48624;49.812;8.562;2023-03-16T00:42:17;101095.66;;;-1.21;95.28
62333;BME280;48624;49.812;8.562;2023-03-16T00:44:43;101099.94;;;-1.16;94.21
62333;BME280;48624;49.812;8.562;2023-03-16T00:47:09;101101.78;;;-1.29;95.66
62333;BME280;48624;49.812;8.562;2023-03-16T00:49:39;101092.19;;;-1.20;95.17
62333;BME280;48624;49.812;8.562;2023-03-16T00:52:08;101088.69;;;-1.19;95.35
62333;BME280;48624;49.812;8.562;2023-03-16T00:54:34;101086.19;;;-1.29;95.77
62333;BME280;48624;49.812;8.562;2023-03-16T00:57:01;101091.34;;;-1.24;96.19
62333;BME280;48624;49.812;8.562;2023-03-16T00:59:27;101087.69;;;-1.06;94.48
62333;BME280;48624;49.812;8.562;2023-03-16T01:01:54;101080.31;;;-1.56;96.42
62333;BME280;48624;49.812;8.562;2023-03-16T01:04:20;101078.50;;;-1.43;97.10
62333;BME280;48624;49.812;8.562;2023-03-16T01:06:47;101084.56;;;-1.42;96.46
62333;BME280;48624;49.812;8.562;2023-03-16T01:09:12;101081.94;;;-1.41;96.95
62333;BME280;48624;49.812;8.562;2023-03-16T01:11:40;101086.28;;;-1.44;96.85
62333;BME280;48624;49.812;8.562;2023-03-16T01:14:08;101077.72;;;-1.56;97.05
62333;BME280;48624;49.812;8.562;2023-03-16T01:16:34;101076.94;;;-1.65;97.90
62333;BME280;48624;49.812;8.562;2023-03-16T01:18:59;101084.69;;;-1.64;97.58
62333;BME280;48624;49.812;8.562;2023-03-16T01:21:26;101081.47;;;-2.00;98.64
62333;BME280;48624;49.812;8.562;2023-03-16T01:23:51;101084.03;;;-1.94;99.41
62333;BME280;48624;49.812;8.562;2023-03-16T01:26:18;101087.66;;;-2.26;99.71
62333;BME280;48624;49.812;8.562;2023-03-16T01:28:45;101092.66;;;-1.92;99.58
62333;BME280;48624;49.812;8.562;2023-03-16T01:31:12;101084.97;;;-2.03;99.91
62333;BME280;48624;49.812;8.562;2023-03-16T01:33:39;101091.84;;;-1.97;99.93
62333;BME280;48624;49.812;8.562;2023-03-16T01:36:07;101091.78;;;-1.85;99.20
62333;BME280;48624;49.812;8.562;2023-03-16T01:38:34;101087.44;;;-1.84;98.73
62333;BME280;48624;49.812;8.562;2023-03-16T01:40:59;101073.66;;;-1.92;99.35
62333;BME280;48624;49.812;8.562;2023-03-16T01:43:28;101068.44;;;-1.88;100.00
62333;BME280;48624;49.812;8.562;2023-03-16T01:48:57;101057.16;;;-1.87;100.00
62333;BME280;48624;49.812;8.562;2023-03-16T01:51:56;101061.47;;;-1.87;99.59
62333;BME280;48624;49.812;8.562;2023-03-16T01:54:30;101059.81;;;-1.96;100.00
62333;BME280;48624;49.812;8.562;2023-03-16T01:57:06;101059.81;;;-1.98;100.00
62333;BME280;48624;49.812;8.562;2023-03-16T01:59:39;101071.94;;;-1.98;100.00
62333;BME280;48624;49.812;8.562;2023-03-16T02:02:08;101064.03;;;-1.81;100.00
62333;BME280;48624;49.812;8.562;2023-03-16T02:04:49;101069.50;;;-2.29;100.00
62333;BME280;48624;49.812;8.562;2023-03-16T02:07:20;101061.69;;;-2.29;100.00
62333;BME280;48624;49.812;8.562;2023-03-16T02:09:51;101048.63;;;-2.09;100.00
62333;BME280;48624;49.812;8.562;2023-03-16T02:12:17;101041.56;;;-1.87;100.00
62333;BME280;48624;49.812;8.562;2023-03-16T02:14:48;101041.50;;;-1.77;100.00
62333;BME280;48624;49.812;8.562;2023-03-16T02:17:16;101044.22;;;-1.98;100.00
62333;BME280;48624;49.812;8.562;2023-03-16T02:22:21;101042.50;;;-1.97;100.00
62333;BME280;48624;49.812;8.562;2023-03-16T02:24:50;101043.31;;;-1.90;100.00
62333;BME280;48624;49.812;8.562;2023-03-16T02:27:26;101039.91;;;-1.99;100.00
62333;BME280;48624;49.812;8.562;2023-03-16T02:30:05;101048.53;;;-1.89;100.00
62333;BME280;48624;49.812;8.562;2023-03-16T02:32:32;101047.69;;;-1.92;100.00
62333;BME280;48624;49.812;8.562;2023-03-16T02:34:59;101039.94;;;-2.02;100.00
62333;BME280;48624;49.812;8.562;2023-03-16T02:37:26;101043.44;;;-2.07;100.00
62333;BME280;48624;49.812;8.562;2023-03-16T02:39:53;101034.81;;;-2.13;100.00
62333;BME280;48624;49.812;8.562;2023-03-16T02:42:21;101032.19;;;-2.06;100.00
62333;BME280;48624;49.812;8.562;2023-03-16T02:44:49;101033.00;;;-1.98;100.00
62333;BME280;48624;49.812;8.562;2023-03-16T02:47:23;101018.28;;;-2.01;100.00
62333;BME280;48624;49.812;8.562;2023-03-16T02:49:51;101023.53;;;-2.04;100.00
62333;BME280;48624;49.812;8.562;2023-03-16T02:52:16;101020.88;;;-2.02;100.00
62333;BME280;48624;49.812;8.562;2023-03-16T02:54:41;101020.81;;;-1.93;100.00
62333;BME280;48624;49.812;8.562;2023-03-16T02:57:06;101016.50;;;-1.94;100.00
62333;BME280;48624;49.812;8.562;2023-03-16T02:59:32;101006.16;;;-1.97;100.00
62333;BME280;48624;49.812;8.562;2023-03-16T03:01:57;101009.56;;;-1.89;100.00
62333;BME280;48624;49.812;8.562;2023-03-16T03:04:22;101010.53;;;-2.07;100.00
62333;BME280;48624;49.812;8.562;2023-03-16T03:06:50;101014.88;;;-2.11;100.00
62333;BME280;48624;49.812;8.562;2023-03-16T03:09:15;101013.88;;;-1.89;100.00
62333;BME280;48624;49.812;8.562;2023-03-16T03:11:41;101006.25;;;-2.13;100.00
62333;BME280;48624;49.812;8.562;2023-03-16T03:14:07;100999.41;;;-2.26;100.00
62333;BME280;48624;49.812;8.562;2023-03-16T03:16:32;100986.44;;;-2.26;100.00
62333;BME280;48624;49.812;8.562;2023-03-16T03:18:58;100986.41;;;-2.23;100.00
62333;BME280;48624;49.812;8.562;2023-03-16T03:21:23;100990.63;;;-2.08;100.00
62333;BME280;48624;49.812;8.562;2023-03-16T03:23:49;100997.56;;;-2.12;99.80
62333;BME280;48624;49.812;8.562;2023-03-16T03:26:15;100994.94;;;-2.07;100.00
62333;BME280;48624;49.812;8.562;2023-03-16T03:28:41;100989.63;;;-1.90;99.33
62333;BME280;48624;49.812;8.562;2023-03-16T03:31:18;100987.09;;;-1.98;99.34
62333;BME280;48624;49.812;8.562;2023-03-16T03:33:44;100982.88;;;-2.11;99.79
62333;BME280;48624;49.812;8.562;2023-03-16T03:36:09;100988.94;;;-2.12;99.97
62333;BME280;48624;49.812;8.562;2023-03-16T03:38:35;100985.44;;;-2.06;99.59
62333;BME280;48624;49.812;8.562;2023-03-16T03:41:02;100983.78;;;-2.20;99.68
62333;BME280;48624;49.812;8.562;2023-03-16T03:43:28;100987.34;;;-2.32;99.64
62333;BME280;48624;49.812;8.562;2023-03-16T03:45:57;100987.28;;;-2.22;99.36
62333;BME280;48624;49.812;8.562;2023-03-16T03:48:23;100990.81;;;-2.38;99.10
62333;BME280;48624;49.812;8.562;2023-03-16T03:50:48;100989.97;;;-2.41;100.00
62333;BME280;48624;49.812;8.562;2023-03-16T03:53:14;100979.53;;;-2.30;99.31
62333;BME280;48624;49.812;8.562;2023-03-16T03:55:40;100988.34;;;-2.62;100.00
62333;BME280;48624;49.812;8.562;2023-03-16T03:58:05;100991.00;;;-2.70;100.00
62333;BME280;48624;49.812;8.562;2023-03-16T04:00:31;100977.91;;;-2.50;100.00
62333;BME280;48624;49.812;8.562;2023-03-16T04:02:56;100984.81;;;-2.47;100.00
62333;BME280;48624;49.812;8.562;2023-03-16T04:05:22;100985.69;;;-2.50;100.00
62333;BME280;48624;49.812;8.562;2023-03-16T04:07:50;100991.75;;;-2.57;100.00
62333;BME280;48624;49.812;8.562;2023-03-16T04:10:19;100997.03;;;-2.74;100.00
62333;BME280;48624;49.812;8.562;2023-03-16T04:12:45;101000.53;;;-2.83;100.00
62333;BME280;48624;49.812;8.562;2023-03-16T04:15:10;100997.06;;;-2.77;100.00
62333;BME280;48624;49.812;8.562;2023-03-16T04:17:36;100995.31;;;-2.82;100.00
62333;BME280;48624;49.812;8.562;2023-03-16T04:20:02;100998.78;;;-2.81;100.00
62333;BME280;48624;49.812;8.562;2023-03-16T04:22:31;100997.94;;;-2.86;100.00
62333;BME280;48624;49.812;8.562;2023-03-16T04:24:56;100999.69;;;-2.95;100.00
62333;BME280;48624;49.812;8.562;2023-03-16T04:27:22;100991.03;;;-2.87;100.00
62333;BME280;48624;49.812;8.562;2023-03-16T04:29:47;100983.25;;;-2.84;100.00
62333;BME280;48624;49.812;8.562;2023-03-16T04:32:12;100985.78;;;-2.66;100.00
62333;BME280;48624;49.812;8.562;2023-03-16T04:34:37;100982.31;;;-2.71;100.00
62333;BME280;48624;49.812;8.562;2023-03-16T04:37:05;100980.53;;;-2.61;100.00
62333;BME280;48624;49.812;8.562;2023-03-16T04:39:31;100977.06;;;-2.57;100.00
62333;BME280;48624;49.812;8.562;2023-03-16T04:41:56;100982.34;;;-2.69;100.00
62333;BME280;48624;49.812;8.562;2023-03-16T04:44:21;100977.94;;;-2.55;100.00
62333;BME280;48624;49.812;8.562;2023-03-16T04:46:47;100989.25;;;-2.70;100.00
62333;BME280;48624;49.812;8.562;2023-03-16T04:49:12;100978.84;;;-2.70;100.00
62333;BME280;48624;49.812;8.562;2023-03-16T04:51:37;100985.75;;;-2.64;100.00
62333;BME280;48624;49.812;8.562;2023-03-16T04:54:05;100973.63;;;-2.54;100.00
62333;BME280;48624;49.812;8.562;2023-03-16T04:56:30;100973.59;;;-2.57;100.00
62333;BME280;48624;49.812;8.562;2023-03-16T04:58:56;100962.34;;;-2.55;100.00
62333;BME280;48624;49.812;8.562;2023-03-16T05:01:21;100963.25;;;-2.60;100.00
62333;BME280;48624;49.812;8.562;2023-03-16T05:03:47;100974.53;;;-2.65;100.00
62333;BME280;48624;49.812;8.562;2023-03-16T05:06:14;100970.94;;;-2.43;100.00
62333;BME280;48624;49.812;8.562;2023-03-16T05:08:39;100970.09;;;-2.44;100.00
62333;BME280;48624;49.812;8.562;2023-03-16T05:11:04;100974.38;;;-2.37;100.00
62333;BME280;48624;49.812;8.562;2023-03-16T05:13:30;100977.81;;;-2.34;100.00
62333;BME280;48624;49.812;8.562;2023-03-16T05:15:55;100984.72;;;-2.30;100.00
62333;BME280;48624;49.812;8.562;2023-03-16T05:18:21;100981.25;;;-2.26;100.00
62333;BME280;48624;49.812;8.562;2023-03-16T05:20:54;100976.06;;;-2.28;100.00
62333;BME280;48624;49.812;8.562;2023-03-16T05:23:22;100971.72;;;-2.22;100.00
62333;BME280;48624;49.812;8.562;2023-03-16T05:25:48;100979.50;;;-2.26;100.00
62333;BME280;48624;49.812;8.562;2023-03-16T05:28:14;100971.78;;;-2.37;100.00
62333;BME280;48624;49.812;8.562;2023-03-16T05:30:39;100969.97;;;-2.28;100.00
62333;BME280;48624;49.812;8.562;2023-03-16T05:33:06;100963.06;;;-2.28;100.00
62333;BME280;48624;49.812;8.562;2023-03-16T05:35:32;100968.16;;;-2.11;100.00
62333;BME280;48624;49.812;8.562;2023-03-16T05:37:57;100971.66;;;-2.16;100.00
62333;BME280;48624;49.812;8.562;2023-03-16T05:40:22;100963.81;;;-2.10;100.00
62333;BME280;48624;49.812;8.562;2023-03-16T05:42:52;100963.00;;;-2.20;100.00
62333;BME280;48624;49.812;8.562;2023-03-16T05:45:18;100951.72;;;-2.11;100.00
62333;BME280;48624;49.812;8.562;2023-03-16T05:47:44;100950.09;;;-2.28;100.00
62333;BME280;48624;49.812;8.562;2023-03-16T05:50:14;100949.16;;;-2.19;100.00
62333;BME280;48624;49.812;8.562;2023-03-16T05:52:41;100939.59;;;-2.09;100.00
62333;BME280;48624;49.812;8.562;2023-03-16T05:55:09;100943.88;;;-2.02;100.00
62333;BME280;48624;49.812;8.562;2023-03-16T05:57:35;100944.56;;;-1.79;100.00
62333;BME280;48624;49.812;8.562;2023-03-16T06:00:03;100944.56;;;-1.81;100.00
62333;BME280;48624;49.812;8.562;2023-03-16T06:02:38;100950.81;;;-2.07;100.00
62333;BME280;48624;49.812;8.562;2023-03-16T06:05:04;100951.44;;;-1.75;100.00
62333;BME280;48624;49.812;8.562;2023-03-16T06:07:29;100941.88;;;-1.73;100.00
62333;BME280;48624;49.812;8.562;2023-03-16T06:09:54;100941.00;;;-1.72;100.00
62333;BME280;48624;49.812;8.562;2023-03-16T06:12:20;100943.63;;;-1.75;100.00
62333;BME280;48624;49.812;8.562;2023-03-16T06:14:45;100940.56;;;-1.26;98.26
62333;BME280;48624;49.812;8.562;2023-03-16T06:17:10;100944.13;;;-1.33;97.64
62333;BME280;48624;49.812;8.562;2023-03-16T06:19:36;100948.72;;;-1.61;98.43
62333;BME280;48624;49.812;8.562;2023-03-16T06:22:01;100948.78;;;-1.71;99.30
62333;BME280;48624;49.812;8.562;2023-03-16T06:24:26;100944.53;;;-1.78;99.84
62333;BME280;48624;49.812;8.562;2023-03-16T06:26:51;100946.16;;;-1.68;99.97
62333;BME280;48624;49.812;8.562;2023-03-16T06:29:17;100947.19;;;-1.87;100.00
62333;BME280;48624;49.812;8.562;2023-03-16T06:31:42;100954.88;;;-1.73;100.00
62333;BME280;48624;49.812;8.562;2023-03-16T06:34:08;100957.47;;;-1.73;100.00
62333;BME280;48624;49.812;8.562;2023-03-16T06:36:33;100959.16;;;-1.68;100.00
62333;BME280;48624;49.812;8.562;2023-03-16T06:38:58;100951.41;;;-1.71;100.00
62333;BME280;48624;49.812;8.562;2023-03-16T06:41:24;100959.03;;;-1.50;100.00
62333;BME280;48624;49.812;8.562;2023-03-16T06:43:49;100953.28;;;-1.90;100.00
62333;BME280;48624;49.812;8.562;2023-03-16T06:46:14;100954.69;;;-1.53;100.00
62333;BME280;48624;49.812;8.562;2023-03-16T06:48:39;100956.50;;;-1.63;100.00
62333;BME280;48624;49.812;8.562;2023-03-16T06:51:06;100956.28;;;-1.38;100.00
62333;BME280;48624;49.812;8.562;2023-03-16T06:53:32;100956.28;;;-1.38;100.00
62333;BME280;48624;49.812;8.562;2023-03-16T06:55:57;100954.13;;;-0.99;100.00
62333;BME280;48624;49.812;8.562;2023-03-16T06:58:22;100962.97;;;-1.14;100.00
62333;BME280;48624;49.812;8.562;2023-03-16T07:00:48;100949.81;;;-1.00;100.00
62333;BME280;48624;49.812;8.562;2023-03-16T07:03:15;100950.63;;;-0.94;100.00
62333;BME280;48624;49.812;8.562;2023-03-16T07:05:42;100953.34;;;-1.05;100.00
62333;BME280;48624;49.812;8.562;2023-03-16T07:08:07;100955.50;;;-0.70;99.05
62333;BME280;48624;49.812;8.562;2023-03-16T07:10:34;100951.78;;;-0.50;97.73
62333;BME280;48624;49.812;8.562;2023-03-16T07:12:59;100951.06;;;-0.61;98.99
62333;BME280;48624;49.812;8.562;2023-03-16T07:15:24;100947.19;;;-0.32;98.62
62333;BME280;48624;49.812;8.562;2023-03-16T07:17:51;100950.75;;;-0.39;97.93
62333;BME280;48624;49.812;8.562;2023-03-16T07:20:18;100944.75;;;0.13;96.97
62333;BME280;48624;49.812;8.562;2023-03-16T07:22:43;100939.63;;;0.09;96.57
62333;BME280;48624;49.812;8.562;2023-03-16T07:25:09;100948.94;;;0.22;96.76
62333;BME280;48624;49.812;8.562;2023-03-16T07:27:36;100956.50;;;0.38;96.94
62333;BME280;48624;49.812;8.562;2023-03-16T07:30:01;100949.50;;;0.41;94.98
62333;BME280;48624;49.812;8.562;2023-03-16T07:32:29;100957.66;;;0.70;94.41
62333;BME280;48624;49.812;8.562;2023-03-16T07:34:56;100954.97;;;0.75;93.67
62333;BME280;48624;49.812;8.562;2023-03-16T07:37:24;100953.53;;;1.04;94.64
62333;BME280;48624;49.812;8.562;2023-03-16T07:39:50;100961.50;;;0.98;95.48
62333;BME280;48624;49.812;8.562;2023-03-16T07:42:16;100964.94;;;1.00;95.10
62333;BME280;48624;49.812;8.562;2023-03-16T07:44:41;100965.91;;;0.95;95.32
62333;BME280;48624;49.812;8.562;2023-03-16T07:47:06;100955.84;;;0.75;96.16
62333;BME280;48624;49.812;8.562;2023-03-16T07:49:31;100951.13;;;0.94;95.69
62333;BME280;48624;49.812;8.562;2023-03-16T07:51:57;100954.84;;;0.82;95.26
62333;BME280;48624;49.812;8.562;2023-03-16T07:54:25;100957.03;;;1.04;95.78
62333;BME280;48624;49.812;8.562;2023-03-16T07:56:50;100951.13;;;1.38;94.95
62333;BME280;48624;49.812;8.562;2023-03-16T07:59:15;100954.50;;;1.42;94.69
62333;BME280;48624;49.812;8.562;2023-03-16T08:01:41;100952.69;;;1.46;94.14
62333;BME280;48624;49.812;8.562;2023-03-16T08:04:08;100945.03;;;1.77;94.03
62333;BME280;48624;49.812;8.562;2023-03-16T08:06:36;100949.78;;;1.98;92.72
62333;BME280;48624;49.812;8.562;2023-03-16T08:09:04;100937.06;;;1.84;92.04
62333;BME280;48624;49.812;8.562;2023-03-16T08:11:30;100950.19;;;2.17;91.94
62333;BME280;48624;49.812;8.562;2023-03-16T08:13:55;100943.69;;;1.97;92.89
62333;BME280;48624;49.812;8.562;2023-03-16T08:16:22;100937.28;;;2.45;92.28
62333;BME280;48624;49.812;8.562;2023-03-16T08:18:48;100938.59;;;2.62;91.68
62333;BME280;48624;49.812;8.562;2023-03-16T08:21:16;100941.94;;;2.67;91.27
62333;BME280;48624;49.812;8.562;2023-03-16T08:23:42;100941.09;;;2.67;90.16
62333;BME280;48624;49.812;8.562;2023-03-16T08:26:14;100936.34;;;3.11;90.17
62333;BME280;48624;49.812;8.562;2023-03-16T08:28:39;100940.97;;;3.33;90.04
62333;BME280;48624;49.812;8.562;2023-03-16T08:31:06;100945.50;;;3.26;90.87
62333;BME280;48624;49.812;8.562;2023-03-16T08:33:31;100940.84;;;3.66;89.06
62333;BME280;48624;49.812;8.562;2023-03-16T08:35:57;100936.03;;;3.81;88.94
62333;BME280;48624;49.812;8.562;2023-03-16T08:38:22;100930.88;;;4.05;88.47
62333;BME280;48624;49.812;8.562;2023-03-16T08:40:49;100946.50;;;4.35;87.26
62333;BME280;48624;49.812;8.562;2023-03-16T08:43:16;100938.88;;;4.54;85.93
62333;BME280;48624;49.812;8.562;2023-03-16T08:45:44;100934.69;;;4.74;84.88
62333;BME280;48624;49.812;8.562;2023-03-16T08:48:09;100931.09;;;4.76;84.40
62333;BME280;48624;49.812;8.562;2023-03-16T08:50:39;100927.50;;;5.03;83.08
62333;BME280;48624;49.812;8.562;2023-03-16T08:53:04;100923.97;;;5.04;81.88
62333;BME280;48624;49.812;8.562;2023-03-16T08:55:30;100922.53;;;5.43;81.55
62333;BME280;48624;49.812;8.562;2023-03-16T08:57:55;100938.22;;;4.96;80.26
62333;BME280;48624;49.812;8.562;2023-03-16T09:00:21;100928.22;;;5.30;79.81
62333;BME280;48624;49.812;8.562;2023-03-16T09:02:47;100921.59;;;5.44;79.82
62333;BME280;48624;49.812;8.562;2023-03-16T09:05:13;100935.56;;;5.68;77.90
62333;BME280;48624;49.812;8.562;2023-03-16T09:07:41;100930.66;;;5.81;77.14
62333;BME280;48624;49.812;8.562;2023-03-16T09:10:09;100926.00;;;5.88;76.28
62333;BME280;48624;49.812;8.562;2023-03-16T09:12:37;100914.00;;;6.25;76.04
62333;BME280;48624;49.812;8.562;2023-03-16T09:15:05;100912.28;;;6.24;75.74
62333;BME280;48624;49.812;8.562;2023-03-16T09:17:30;100905.16;;;6.68;74.44
62333;BME280;48624;49.812;8.562;2023-03-16T09:19:57;100919.06;;;6.30;73.96
62333;BME280;48624;49.812;8.562;2023-03-16T09:22:22;100926.81;;;6.33;75.35
62333;BME280;48624;49.812;8.562;2023-03-16T09:24:50;100922.88;;;6.64;74.23
62333;BME280;48624;49.812;8.562;2023-03-16T09:27:17;100911.03;;;6.74;74.19
62333;BME280;48624;49.812;8.562;2023-03-16T09:29:42;100910.00;;;6.98;73.51
62333;BME280;48624;49.812;8.562;2023-03-16T09:32:09;100912.00;;;7.12;73.08
62333;BME280;48624;49.812;8.562;2023-03-16T09:34:36;100918.13;;;7.31;72.46
62333;BME280;48624;49.812;8.562;2023-03-16T09:37:01;100913.41;;;7.00;71.83
62333;BME280;48624;49.812;8.562;2023-03-16T09:39:29;100906.22;;;7.22;72.23
62333;BME280;48624;49.812;8.562;2023-03-16T09:42:18;100902.28;;;7.12;69.70
62333;BME280;48624;49.812;8.562;2023-03-16T09:44:58;100896.44;;;7.44;72.60
62333;BME280;48624;49.812;8.562;2023-03-16T09:47:29;100903.53;;;7.61;70.95
62333;BME280;48624;49.812;8.562;2023-03-16T09:49:57;100902.09;;;7.73;71.86
62333;BME280;48624;49.812;8.562;2023-03-16T09:52:43;100905.31;;;7.97;70.03
62333;BME280;48624;49.812;8.562;2023-03-16T09:57:58;100902.03;;;8.27;71.32
62333;BME280;48624;49.812;8.562;2023-03-16T10:00:35;100905.56;;;8.28;70.79
62333;BME280;48624;49.812;8.562;2023-03-16T10:05:28;100888.38;;;8.37;69.22
62333;BME280;48624;49.812;8.562;2023-03-16T10:08:14;100889.06;;;8.40;67.80
62333;BME280;48624;49.812;8.562;2023-03-16T10:11:10;100890.41;;;8.31;67.21
62333;BME280;48624;49.812;8.562;2023-03-16T10:13:53;100881.38;;;8.71;66.06
62333;BME280;48624;49.812;8.562;2023-03-16T10:16:24;100884.56;;;8.42;68.28
62333;BME280;48624;49.812;8.562;2023-03-16T10:19:07;100888.84;;;8.45;68.45
62333;BME280;48624;49.812;8.562;2023-03-16T10:21:39;100885.19;;;8.65;68.00
62333;BME280;48624;49.812;8.562;2023-03-16T10:27:00;100881.16;;;8.92;66.90
62333;BME280;48624;49.812;8.562;2023-03-16T10:29:34;100867.44;;;9.17;65.93
62333;BME280;48624;49.812;8.562;2023-03-16T10:32:11;100869.25;;;9.33;65.36
62333;BME280;48624;49.812;8.562;2023-03-16T10:34:36;100865.44;;;9.53;65.23
62333;BME280;48624;49.812;8.562;2023-03-16T10:37:04;100875.38;;;9.01;64.71
62333;BME280;48624;49.812;8.562;2023-03-16T10:39:35;100873.00;;;8.63;64.93
62333;BME280;48624;49.812;8.562;2023-03-16T10:42:01;100872.91;;;8.98;65.15
62333;BME280;48624;49.812;8.562;2023-03-16T10:44:28;100868.94;;;9.69;66.30
62333;BME280;48624;49.812;8.562;2023-03-16T10:47:03;100866.41;;;9.36;62.61
62333;BME280;48624;49.812;8.562;2023-03-16T10:49:39;100870.81;;;9.67;62.35
62333;BME280;48624;49.812;8.562;2023-03-16T10:57:50;100857.03;;;10.67;62.50
62333;BME280;48624;49.812;8.562;2023-03-16T11:02:51;100853.31;;;11.13;59.90
62333;BME280;48624;49.812;8.562;2023-03-16T11:07:48;100855.63;;;10.47;62.21
62333;BME280;48624;49.812;8.562;2023-03-16T11:10:34;100846.00;;;11.72;57.51
62333;BME280;48624;49.812;8.562;2023-03-16T11:13:01;100841.97;;;11.38;58.54
62333;BME280;48624;49.812;8.562;2023-03-16T11:15:35;100833.44;;;11.06;56.53
62333;BME280;48624;49.812;8.562;2023-03-16T11:18:01;100827.69;;;11.27;59.21
62333;BME280;48624;49.812;8.562;2023-03-16T11:20:29;100832.94;;;11.69;57.76
62333;BME280;48624;49.812;8.562;2023-03-16T11:22:58;100823.75;;;10.63;55.67
62333;BME280;48624;49.812;8.562;2023-03-16T11:25:45;100821.72;;;11.23;56.57
62333;BME280;48624;49.812;8.562;2023-03-16T11:28:18;100819.97;;;12.17;55.67
62333;BME280;48624;49.812;8.562;2023-03-16T11:33:45;100815.56;;;11.50;52.64
62333;BME280;48624;49.812;8.562;2023-03-16T11:36:27;100814.34;;;11.69;55.44
62333;BME280;48624;49.812;8.562;2023-03-16T11:39:14;100815.28;;;12.47;53.34
62333;BME280;48624;49.812;8.562;2023-03-16T11:45:29;100800.22;;;12.85;52.21
62333;BME280;48624;49.812;8.562;2023-03-16T11:47:47;100804.09;;;12.68;50.97
62333;BME280;48624;49.812;8.562;2023-03-16T11:53:06;100791.41;;;13.46;48.28
62333;BME280;48624;49.812;8.562;2023-03-16T11:55:52;100783.59;;;12.94;47.02
62333;BME280;48624;49.812;8.562;2023-03-16T12:11:53;100756.13;;;13.07;47.05
62333;BME280;48624;49.812;8.562;2023-03-16T12:14:26;100753.91;;;13.25;46.81
62333;BME280;48624;49.812;8.562;2023-03-16T12:17:08;100747.59;;;12.77;46.75
62333;BME280;48624;49.812;8.562;2023-03-16T12:19:54;100752.31;;;12.98;46.11
62333;BME280;48624;49.812;8.562;2023-03-16T12:22:29;100747.63;;;13.01;47.25
62333;BME280;48624;49.812;8.562;2023-03-16T12:24:57;100745.94;;;13.60;47.44
62333;BME280;48624;49.812;8.562;2023-03-16T12:27:30;100749.84;;;13.68;46.86
62333;BME280;48624;49.812;8.562;2023-03-16T12:30:05;100750.28;;;13.50;45.77
62333;BME280;48624;49.812;8.562;2023-03-16T12:35:45;100742.28;;;13.97;45.43
62333;BME280;48624;49.812;8.562;2023-03-16T12:38:37;100749.44;;;13.50;44.36
62333;BME280;48624;49.812;8.562;2023-03-16T12:41:14;100734.41;;;13.96;45.71
62333;BME280;48624;49.812;8.562;2023-03-16T12:44:00;100743.06;;;13.64;45.15
62333;BME280;48624;49.812;8.562;2023-03-16T12:46:55;100720.81;;;13.87;45.23
62333;BME280;48624;49.812;8.562;2023-03-16T12:49:24;100723.72;;;13.62;43.64
62333;BME280;48624;49.812;8.562;2023-03-16T12:52:02;100720.47;;;13.81;44.77
62333;BME280;48624;49.812;8.562;2023-03-16T12:54:28;100722.03;;;14.18;44.70
62333;BME280;48624;49.812;8.562;2023-03-16T12:57:06;100715.28;;;14.13;44.95
62333;BME280;48624;49.812;8.562;2023-03-16T12:59:44;100706.53;;;13.30;44.02
62333;BME280;48624;49.812;8.562;2023-03-16T13:02:28;100708.13;;;14.02;45.43
62333;BME280;48624;49.812;8.562;2023-03-16T13:04:58;100697.59;;;13.90;43.24
62333;BME280;48624;49.812;8.562;2023-03-16T13:07:28;100696.03;;;14.33;44.52
62333;BME280;48624;49.812;8.562;2023-03-16T13:10:02;100699.50;;;14.56;42.57
62333;BME280;48624;49.812;8.562;2023-03-16T13:12:37;100694.22;;;14.10;43.14
62333;BME280;48624;49.812;8.562;2023-03-16T13:18:02;100683.38;;;14.57;41.52
62333;BME280;48624;49.812;8.562;2023-03-16T13:20:33;100688.69;;;14.57;39.97
62333;BME280;48624;49.812;8.562;2023-03-16T13:26:04;100680.78;;;15.75;39.18
62333;BME280;48624;49.812;8.562;2023-03-16T13:28:36;100671.47;;;16.32;39.74
62333;BME280;48624;49.812;8.562;2023-03-16T13:31:24;100677.53;;;15.50;39.25
62333;BME280;48624;49.812;8.562;2023-03-16T13:33:59;100668.31;;;16.97;37.49
62333;BME280;48624;49.812;8.562;2023-03-16T13:36:27;100666.72;;;16.45;38.85
62333;BME280;48624;49.812;8.562;2023-03-16T13:39:20;100649.34;;;16.20;39.54
62333;BME280;48624;49.812;8.562;2023-03-16T13:41:56;100645.06;;;16.07;38.58
62333;BME280;48624;49.812;8.562;2023-03-16T13:44:24;100647.03;;;17.35;38.03
62333;BME280;48624;49.812;8.562;2023-03-16T13:46:50;100648.03;;;16.85;36.36
62333;BME280;48624;49.812;8.562;2023-03-16T13:49:16;100645.13;;;15.86;36.25
62333;BME280;48624;49.812;8.562;2023-03-16T13:51:42;100643.41;;;16.97;36.57
62333;BME280;48624;49.812;8.562;2023-03-16T13:54:29;100641.44;;;16.89;35.54